Time;durP1;ratioP1;P1;durP2;ratioP2;P2;SDS_P1;SDS_P2;PMS_P1;PMS_P2;Temp;Humidity;BMP_temperature;BMP_pressure;BME280_temperature;BME280_humidity;BME280_pressure;Samples;Min_cycle;Max_cycle;Signal;HPM_P1;HPM_P2
2023/05/19 00:01:42;;;;;;;0.50;0.50;;;;;;;12.44;100.00;101027.25;7390486;19;20043;-76
2023/05/19 00:04:11;;;;;;;0.30;0.25;;;;;;;12.33;100.00;101021.28;7390871;19;20022;-76
2023/05/19 00:06:37;;;;;;;1.15;0.47;;;;;;;12.28;100.00;101019.13;7390643;19;20010;-76
2023/05/19 00:09:08;;;;;;;0.77;0.63;;;;;;;12.25;100.00;101015.22;7389724;19;20014;-76
2023/05/19 00:11:36;;;;;;;1.90;0.73;;;;;;;12.34;100.00;101017.28;7390024;19;20022;-76
2023/05/19 00:14:04;;;;;;;0.50;0.43;;;;;;;12.19;100.00;101017.81;7388594;19;20045;-76
2023/05/19 00:16:31;;;;;;;0.60;0.60;;;;;;;12.14;100.00;101014.84;7392139;19;20018;-77
2023/05/19 00:18:59;;;;;;;3.03;0.80;;;;;;;12.15;100.00;101013.59;7391763;19;20018;-77
2023/05/19 00:21:26;;;;;;;4.15;0.77;;;;;;;12.06;100.00;101005.97;7389314;19;20014;-77
2023/05/19 00:23:52;;;;;;;0.57;0.57;;;;;;;12.13;100.00;101016.88;7389909;19;20040;-77
2023/05/19 00:26:18;;;;;;;0.65;0.65;;;;;;;12.39;100.00;101009.06;7395684;19;20014;-77
2023/05/19 00:28:54;;;;;;;0.90;0.68;;;;;;;12.13;100.00;101014.06;7392782;19;20070;-77
2023/05/19 00:31:20;;;;;;;0.77;0.30;;;;;;;12.17;100.00;101009.13;7389113;19;20350;-77
2023/05/19 00:33:46;;;;;;;1.85;0.60;;;;;;;12.25;100.00;101008.84;7391529;19;20346;-76
2023/05/19 00:36:12;;;;;;;0.30;0.30;;;;;;;12.17;100.00;101006.34;7394681;19;20011;-77
2023/05/19 00:38:39;;;;;;;0.90;0.57;;;;;;;12.16;100.00;101001.22;7389767;19;20704;-77
2023/05/19 00:41:06;;;;;;;1.02;0.93;;;;;;;12.18;100.00;101002.31;7388992;19;20018;-76
2023/05/19 00:43:35;;;;;;;0.70;0.57;;;;;;;12.14;100.00;101004.47;7391141;19;20014;-77
2023/05/19 00:46:02;;;;;;;1.17;0.60;;;;;;;12.19;100.00;101001.06;7393788;19;20082;-76
2023/05/19 00:48:28;;;;;;;1.40;0.88;;;;;;;12.18;100.00;101005.09;7389808;19;20007;-77
2023/05/19 00:51:03;;;;;;;1.38;0.57;;;;;;;11.86;100.00;101011.16;7387216;19;20078;-76
2023/05/19 00:53:31;;;;;;;1.77;0.55;;;;;;;12.54;100.00;100998.09;7389203;19;20023;-76
2023/05/19 00:55:58;;;;;;;0.63;0.45;;;;;;;12.58;100.00;101004.31;7392108;19;20015;-77
2023/05/19 00:58:29;;;;;;;0.90;0.65;;;;;;;12.33;100.00;101008.13;7401980;19;20010;-80
2023/05/19 01:01:02;;;;;;;1.80;1.15;;;;;;;12.65;100.00;101004.81;7394310;19;20074;-82
2023/05/19 01:03:34;;;;;;;35.80;1.45;;;;;;;12.51;100.00;101004.59;7394969;19;20026;-80
2023/05/19 01:06:03;;;;;;;1.23;0.40;;;;;;;12.55;100.00;101005.25;7396749;19;20091;-79
2023/05/19 01:08:34;;;;;;;2.05;0.75;;;;;;;12.61;100.00;101003.38;7395764;19;20018;-80
2023/05/19 01:11:00;;;;;;;0.85;0.82;;;;;;;12.54;100.00;101003.69;7394428;19;20011;-79
2023/05/19 01:13:28;;;;;;;0.50;0.50;;;;;;;12.55;100.00;101008.03;7396065;19;20043;-79
2023/05/19 01:16:23;;;;;;;1.52;0.50;;;;;;;12.63;100.00;101012.09;7395574;19;20512;-79
2023/05/19 01:19:00;;;;;;;1.10;0.60;;;;;;;12.45;100.00;101012.81;7395944;19;20036;-79
2023/05/19 01:21:45;;;;;;;1.95;0.82;;;;;;;12.89;100.00;101013.38;7394793;19;20011;-79
2023/05/19 01:24:45;;;;;;;0.50;0.40;;;;;;;12.87;100.00;101007.50;7393657;19;20087;-79
2023/05/19 01:28:02;;;;;;;1.35;0.63;;;;;;;13.14;100.00;101010.38;7395671;19;20078;-81
2023/05/19 01:30:41;;;;;;;2.75;1.23;;;;;;;13.36;100.00;101008.16;7392932;19;20014;-80
2023/05/19 01:33:14;;;;;;;1.08;0.77;;;;;;;13.33;100.00;101003.53;7394970;19;20014;-79
2023/05/19 01:35:42;;;;;;;0.93;0.45;;;;;;;12.33;100.00;101010.13;7394862;19;20465;-80
2023/05/19 01:38:10;;;;;;;0.98;0.55;;;;;;;13.03;100.00;101007.22;7394074;19;20020;-80
2023/05/19 01:40:38;;;;;;;2.63;0.70;;;;;;;13.31;100.00;101006.00;7393036;19;20011;-80
2023/05/19 01:43:06;;;;;;;6.35;0.73;;;;;;;13.48;100.00;101012.84;7393580;19;20870;-80
2023/05/19 01:45:33;;;;;;;1.15;0.50;;;;;;;13.44;100.00;101009.44;7397738;19;20027;-80
2023/05/19 01:48:02;;;;;;;0.57;0.57;;;;;;;13.26;100.00;101003.03;7392258;19;20398;-79
2023/05/19 01:50:28;;;;;;;0.73;0.40;;;;;;;13.36;100.00;101001.81;7394237;19;20014;-80
2023/05/19 01:52:55;;;;;;;0.68;0.50;;;;;;;13.43;100.00;101002.28;7396741;19;20010;-80
2023/05/19 01:55:24;;;;;;;5.47;0.90;;;;;;;13.22;100.00;100994.81;7397388;19;20018;-80
2023/05/19 01:58:17;;;;;;;8.50;1.02;;;;;;;13.21;100.00;100998.84;7395262;19;20473;-80
2023/05/19 02:01:08;;;;;;;4.60;0.93;;;;;;;12.98;100.00;100993.06;7392665;19;20465;-80
2023/05/19 02:03:40;;;;;;;1.65;0.77;;;;;;;13.00;100.00;101001.75;7393536;19;20018;-80
2023/05/19 02:06:21;;;;;;;0.73;0.73;;;;;;;12.86;100.00;100998.31;7398237;19;20007;-80
2023/05/19 02:08:57;;;;;;;1.33;0.32;;;;;;;13.45;100.00;100994.19;7394118;19;20021;-80
2023/05/19 02:11:30;;;;;;;0.75;0.57;;;;;;;12.99;100.00;100997.41;7392276;19;20018;-80
2023/05/19 02:14:05;;;;;;;1.23;1.02;;;;;;;13.02;100.00;100994.47;7394105;19;20018;-80
2023/05/19 02:16:34;;;;;;;0.10;0.10;;;;;;;12.76;100.00;100999.56;7393476;19;20022;-79
2023/05/19 02:19:00;;;;;;;0.20;0.20;;;;;;;13.57;100.00;100990.47;7394409;19;20015;-79
2023/05/19 02:21:26;;;;;;;1.45;0.88;;;;;;;11.51;100.00;100994.91;7392288;19;20392;-80
2023/05/19 02:23:54;;;;;;;0.68;0.30;;;;;;;12.89;100.00;101002.22;7392806;19;20469;-80
2023/05/19 02:26:20;;;;;;;1.77;0.75;;;;;;;12.88;100.00;100990.28;7393603;19;20018;-80
2023/05/19 02:28:46;;;;;;;1.27;0.50;;;;;;;11.48;100.00;100999.38;7395839;19;20018;-79
2023/05/19 02:31:12;;;;;;;2.55;1.80;;;;;;;11.33;100.00;101006.69;7391333;19;20018;-80
2023/05/19 02:33:38;;;;;;;0.70;0.63;;;;;;;11.77;100.00;101002.72;7392354;19;20369;-80
2023/05/19 02:36:05;;;;;;;0.50;0.50;;;;;;;11.41;100.00;101008.03;7398974;19;20322;-80
2023/05/19 02:38:31;;;;;;;1.63;0.40;;;;;;;13.26;100.00;100992.63;7394621;19;20023;-80
2023/05/19 02:40:58;;;;;;;1.88;0.85;;;;;;;12.17;100.00;100997.94;7390551;19;20018;-80
2023/05/19 02:43:24;;;;;;;0.45;0.45;;;;;;;12.17;100.00;101011.91;7395664;19;20461;-80
2023/05/19 02:45:50;;;;;;;1.58;0.75;;;;;;;11.21;100.00;101010.31;7397770;19;20031;-80
2023/05/19 02:48:17;;;;;;;0.30;0.30;;;;;;;11.53;100.00;101021.13;7392392;19;20046;-80
2023/05/19 02:50:43;;;;;;;0.65;0.50;;;;;;;11.63;100.00;101017.16;7391843;19;20010;-80
2023/05/19 02:53:09;;;;;;;0.77;0.30;;;;;;;11.69;100.00;101023.75;7393077;19;20011;-80
2023/05/19 02:55:36;;;;;;;1.00;0.55;;;;;;;10.97;100.00;101039.81;7396009;19;20014;-80
2023/05/19 02:58:02;;;;;;;1.05;0.70;;;;;;;11.03;100.00;101035.25;7393603;19;20006;-80
2023/05/19 03:00:29;;;;;;;1.85;0.80;;;;;;;13.18;100.00;101024.97;7391787;19;20018;-80
2023/05/19 03:02:55;;;;;;;1.10;0.60;;;;;;;13.70;100.00;101018.28;7391924;19;20014;-80
2023/05/19 03:05:21;;;;;;;1.00;0.70;;;;;;;12.45;100.00;101026.78;7394721;19;20014;-80
2023/05/19 03:07:47;;;;;;;3.28;0.95;;;;;;;12.62;100.00;101016.13;7392078;19;20422;-80
2023/05/19 03:10:14;;;;;;;1.30;0.95;;;;;;;11.48;100.00;101024.47;7390657;19;20022;-80
2023/05/19 03:12:40;;;;;;;3.58;1.05;;;;;;;13.63;100.00;101012.97;7391153;19;20018;-80
2023/05/19 03:15:07;;;;;;;1.10;0.68;;;;;;;14.16;100.00;101014.09;7393123;19;20489;-80
2023/05/19 03:17:35;;;;;;;1.75;0.90;;;;;;;14.28;100.00;101009.53;7392529;19;20082;-80
2023/05/19 03:20:01;;;;;;;1.45;0.80;;;;;;;13.58;100.00;101014.38;7391051;19;20014;-80
2023/05/19 03:22:27;;;;;;;1.90;1.10;;;;;;;13.29;100.00;101014.09;7394083;19;20011;-80
2023/05/19 03:24:53;;;;;;;3.05;1.15;;;;;;;14.22;100.00;101017.81;7391312;19;20469;-80
2023/05/19 03:27:20;;;;;;;0.70;0.70;;;;;;;14.86;100.00;101015.50;7391815;19;20330;-80
2023/05/19 03:29:46;;;;;;;3.03;1.13;;;;;;;14.57;100.00;101015.38;7395964;19;20082;-80
2023/05/19 03:32:13;;;;;;;1.70;0.70;;;;;;;13.81;100.00;101003.78;7390878;19;20393;-81
2023/05/19 03:34:40;;;;;;;0.85;0.85;;;;;;;12.46;100.00;101002.41;7392738;19;20027;-80
2023/05/19 03:37:06;;;;;;;0.47;0.45;;;;;;;11.85;100.00;100997.63;7391397;19;20469;-80
2023/05/19 03:39:34;;;;;;;0.80;0.70;;;;;;;12.20;100.00;100999.06;7391002;19;20367;-80
2023/05/19 03:42:01;;;;;;;1.27;0.82;;;;;;;13.94;100.00;100990.38;7390622;19;20469;-80
2023/05/19 03:44:27;;;;;;;0.55;0.55;;;;;;;14.57;100.00;100981.72;7394279;19;20137;-80
2023/05/19 03:46:53;;;;;;;1.42;0.43;;;;;;;14.20;100.00;100981.09;7391155;19;20382;-80
2023/05/19 03:49:39;;;;;;;1.05;0.82;;;;;;;14.78;100.00;100972.25;7391812;19;20015;-80
2023/05/19 03:52:08;;;;;;;3.92;0.88;;;;;;;15.82;100.00;100960.75;7390482;19;20042;-79
2023/05/19 03:54:54;;;;;;;0.45;0.45;;;;;;;16.71;100.00;100953.69;7391649;19;20391;-80
2023/05/19 03:57:21;;;;;;;1.40;0.75;;;;;;;14.97;100.00;100956.84;7391181;19;20477;-80
2023/05/19 03:59:47;;;;;;;2.58;0.63;;;;;;;14.79;100.00;100956.97;7394505;19;20014;-80
2023/05/19 04:02:13;;;;;;;1.05;0.98;;;;;;;15.58;100.00;100948.84;7392249;19;20104;-80
2023/05/19 04:04:40;;;;;;;1.08;0.60;;;;;;;13.91;100.00;100952.09;7392724;19;20043;-80
2023/05/19 04:07:06;;;;;;;0.68;0.68;;;;;;;13.47;100.00;100963.72;7390754;19;20026;-80
2023/05/19 04:09:34;;;;;;;1.55;0.40;;;;;;;13.46;100.00;100966.97;7390566;19;20457;-80
2023/05/19 04:12:03;;;;;;;0.32;0.30;;;;;;;13.61;100.00;100977.06;7391224;19;20013;-80
2023/05/19 04:14:30;;;;;;;0.77;0.68;;;;;;;13.93;100.00;100977.59;7390562;19;20025;-80
2023/05/19 04:16:56;;;;;;;3.70;1.52;;;;;;;15.97;100.00;100969.94;7390028;19;20014;-80
2023/05/19 04:19:22;;;;;;;2.05;0.73;;;;;;;16.53;100.00;100977.22;7390267;19;20054;-80
2023/05/19 04:21:48;;;;;;;0.45;0.25;;;;;;;15.67;100.00;100983.22;7392380;19;20021;-80
2023/05/19 04:24:14;;;;;;;0.68;0.60;;;;;;;13.76;100.00;100979.19;7391053;19;20027;-80
2023/05/19 04:26:44;;;;;;;1.65;0.65;;;;;;;16.77;100.00;100983.47;7389751;19;20015;-80
2023/05/19 04:29:12;;;;;;;0.83;0.70;;;;;;;16.86;100.00;100996.63;7394394;19;20431;-80
2023/05/19 04:31:39;;;;;;;1.27;0.82;;;;;;;15.00;100.00;100992.38;7396573;19;20018;-80
2023/05/19 04:34:09;;;;;;;0.70;0.20;;;;;;;13.24;100.00;100997.94;7397470;19;20014;-80
2023/05/19 04:36:36;;;;;;;0.47;0.47;;;;;;;15.47;100.00;100985.13;7401359;19;20010;-80
2023/05/19 04:39:06;;;;;;;0.82;0.35;;;;;;;15.29;100.00;100990.91;7397326;19;20039;-80
2023/05/19 04:41:33;;;;;;;1.55;0.43;;;;;;;15.84;100.00;100989.91;7393600;19;20470;-80
2023/05/19 04:44:00;;;;;;;8.55;1.15;;;;;;;16.52;100.00;100987.69;7398430;19;20024;-79
2023/05/19 04:46:28;;;;;;;0.25;0.22;;;;;;;15.43;100.00;100990.94;7395248;19;20018;-80
2023/05/19 04:48:55;;;;;;;0.52;0.40;;;;;;;15.91;100.00;100985.94;7396237;19;20021;-79
2023/05/19 04:51:26;;;;;;;1.38;0.70;;;;;;;13.42;100.00;100989.53;7393009;19;20006;-79
2023/05/19 04:53:54;;;;;;;0.55;0.55;;;;;;;15.48;100.00;100981.09;7396757;19;20090;-79
2023/05/19 04:56:20;;;;;;;0.98;0.40;;;;;;;13.22;100.00;100980.06;7396133;19;20035;-79
2023/05/19 04:58:47;;;;;;;4.13;1.55;;;;;;;16.27;100.00;100985.50;7398144;19;20015;-79
2023/05/19 05:01:14;;;;;;;0.60;0.60;;;;;;;16.70;100.00;100988.75;7392493;19;20358;-79
2023/05/19 05:03:42;;;;;;;0.60;0.45;;;;;;;16.59;100.00;100983.72;7395703;19;20465;-79
2023/05/19 05:06:10;;;;;;;3.58;1.20;;;;;;;15.59;100.00;100993.28;7396739;19;20018;-79
2023/05/19 05:08:39;;;;;;;0.43;0.35;;;;;;;14.75;100.00;101001.22;7396842;19;20394;-79
2023/05/19 05:11:05;;;;;;;1.50;0.50;;;;;;;16.47;100.00;100996.81;7395656;19;20006;-79
2023/05/19 05:13:33;;;;;;;4.60;0.55;;;;;;;14.80;100.00;101000.59;7396042;19;20035;-79
2023/05/19 05:16:00;;;;;;;6.95;0.90;;;;;;;14.80;100.00;101002.63;7395285;19;20014;-79
2023/05/19 05:18:26;;;;;;;0.40;0.40;;;;;;;14.54;100.00;101005.09;7397121;19;20010;-79
2023/05/19 05:20:53;;;;;;;0.52;0.52;;;;;;;14.51;100.00;101008.84;7392677;19;20007;-82
2023/05/19 05:23:19;;;;;;;1.10;0.50;;;;;;;14.31;100.00;101005.84;7394868;19;20017;-79
2023/05/19 05:25:48;;;;;;;3.95;1.23;;;;;;;14.65;100.00;101005.34;7395401;19;20018;-79
2023/05/19 05:28:15;;;;;;;1.85;0.68;;;;;;;14.55;100.00;101003.88;7397371;19;20541;-80
2023/05/19 05:30:43;;;;;;;0.77;0.50;;;;;;;14.60;100.00;101008.81;7393879;19;20015;-79
2023/05/19 05:33:10;;;;;;;0.50;0.50;;;;;;;14.68;100.00;101004.41;7395518;19;20085;-79
2023/05/19 05:35:38;;;;;;;3.22;0.85;;;;;;;14.57;100.00;101003.38;7397384;19;20021;-79
2023/05/19 05:38:06;;;;;;;0.52;0.52;;;;;;;14.67;100.00;101007.69;7395731;19;20048;-79
2023/05/19 05:40:32;;;;;;;0.82;0.73;;;;;;;16.67;100.00;101002.50;7393056;19;20042;-79
2023/05/19 05:42:58;;;;;;;3.75;0.93;;;;;;;17.59;100.00;100997.00;7395733;19;20576;-80
2023/05/19 05:49:03;;;;;;;1.77;0.50;;;;;;;14.45;100.00;101013.53;7394667;19;20022;-80
2023/05/19 05:51:31;;;;;;;1.20;0.63;;;;;;;14.89;100.00;101019.38;7391482;19;20482;-80
2023/05/19 05:54:00;;;;;;;3.22;0.68;;;;;;;14.67;100.00;101018.88;7393776;19;20498;-80
2023/05/19 05:56:33;;;;;;;0.82;0.50;;;;;;;14.83;100.00;101010.88;7394317;19;20022;-80
2023/05/19 05:59:01;;;;;;;1.50;0.52;;;;;;;14.89;100.00;101013.78;7398345;19;20019;-80
2023/05/19 06:01:29;;;;;;;0.47;0.47;;;;;;;14.90;100.00;101013.28;7393051;19;20026;-80
2023/05/19 06:03:55;;;;;;;1.95;0.55;;;;;;;15.10;100.00;101019.09;7393185;19;20024;-80
2023/05/19 06:06:23;;;;;;;2.00;0.52;;;;;;;15.27;100.00;101018.66;7394686;19;20545;-80
2023/05/19 06:08:51;;;;;;;1.38;0.80;;;;;;;15.21;100.00;101018.53;7394386;19;20031;-80
2023/05/19 06:11:18;;;;;;;0.43;0.30;;;;;;;15.36;100.00;101027.00;7395280;19;20019;-80
2023/05/19 06:13:44;;;;;;;2.80;0.52;;;;;;;15.48;100.00;101031.63;7393720;19;20473;-80
2023/05/19 06:16:18;;;;;;;0.70;0.40;;;;;;;15.63;100.00;101029.63;7393674;19;20022;-80
2023/05/19 06:18:46;;;;;;;0.73;0.73;;;;;;;15.75;100.00;101034.16;7394447;19;20023;-80
2023/05/19 06:21:13;;;;;;;0.28;0.20;;;;;;;15.80;100.00;101033.50;7392098;19;20024;-80
2023/05/19 06:23:40;;;;;;;0.93;0.57;;;;;;;15.74;100.00;101032.63;7397459;19;20018;-79
2023/05/19 06:26:08;;;;;;;1.30;0.40;;;;;;;15.85;100.00;101033.59;7394521;19;20015;-80
2023/05/19 06:28:34;;;;;;;0.50;0.28;;;;;;;15.90;100.00;101038.53;7395678;19;20036;-80
2023/05/19 06:31:00;;;;;;;1.45;0.35;;;;;;;15.98;100.00;101040.97;7390612;19;20014;-80
2023/05/19 06:33:39;;;;;;;0.93;0.47;;;;;;;16.20;100.00;101036.50;7392041;19;20442;-80
2023/05/19 06:36:07;;;;;;;1.92;0.80;;;;;;;16.56;100.00;101038.91;7393100;19;20017;-80
2023/05/19 06:38:33;;;;;;;0.43;0.28;;;;;;;16.71;100.00;101035.28;7393098;19;20011;-80
2023/05/19 06:40:59;;;;;;;1.75;0.50;;;;;;;16.85;100.00;101034.47;7390703;19;20028;-82
2023/05/19 06:43:26;;;;;;;0.22;0.10;;;;;;;16.92;100.00;101034.81;7395436;19;20014;-81
2023/05/19 06:45:56;;;;;;;2.30;0.65;;;;;;;17.01;100.00;101042.34;7395471;19;20017;-82
2023/05/19 06:48:24;;;;;;;1.25;0.28;;;;;;;16.95;100.00;101030.25;7393461;19;20485;-81
2023/05/19 06:50:50;;;;;;;4.80;0.50;;;;;;;16.87;100.00;101027.06;7391451;19;20011;-82
2023/05/19 06:53:18;;;;;;;0.80;0.32;;;;;;;16.94;100.00;101020.25;7391689;19;20021;-82
2023/05/19 06:55:45;;;;;;;1.25;0.40;;;;;;;16.92;100.00;101028.41;7395603;19;20777;-81
2023/05/19 06:58:13;;;;;;;0.77;0.25;;;;;;;17.02;100.00;101027.03;7393403;19;20021;-81
2023/05/19 07:00:39;;;;;;;0.55;0.30;;;;;;;16.99;100.00;101028.00;7392318;19;20015;-82
2023/05/19 07:03:07;;;;;;;0.85;0.40;;;;;;;16.84;100.00;101032.91;7391582;19;20010;-81
2023/05/19 07:05:34;;;;;;;4.43;0.20;;;;;;;16.66;100.00;101023.47;7394914;19;20014;-81
2023/05/19 07:08:00;;;;;;;2.25;0.80;;;;;;;16.70;100.00;101028.13;7391743;19;20014;-81
2023/05/19 07:10:28;;;;;;;0.47;0.47;;;;;;;16.88;100.00;101030.66;7394465;19;20346;-81
2023/05/19 07:12:58;;;;;;;8.73;0.67;;;;;;;17.14;100.00;101020.28;7394120;19;20048;-82
2023/05/19 07:15:28;;;;;;;0.65;0.52;;;;;;;17.32;100.00;101029.22;7391220;19;20263;-82
2023/05/19 07:17:54;;;;;;;7.28;0.95;;;;;;;17.45;100.00;101026.03;7389145;19;20095;-82
2023/05/19 07:20:20;;;;;;;0.80;0.30;;;;;;;17.57;100.00;101032.56;7389765;19;20762;-81
2023/05/19 07:22:47;;;;;;;1.35;0.40;;;;;;;17.50;100.00;101033.78;7391504;19;20450;-81
2023/05/19 07:25:15;;;;;;;1.55;0.30;;;;;;;17.38;100.00;101037.72;7390679;19;20025;-82
2023/05/19 07:27:44;;;;;;;1.90;0.52;;;;;;;17.28;100.00;101039.91;7394306;19;20086;-82
2023/05/19 07:30:11;;;;;;;1.00;0.75;;;;;;;17.30;100.00;101043.00;7390695;19;20007;-82
2023/05/19 07:32:37;;;;;;;4.20;1.05;;;;;;;17.31;100.00;101044.56;7391294;19;20010;-82
2023/05/19 07:35:04;;;;;;;1.35;0.75;;;;;;;17.50;100.00;101045.06;7392746;19;20019;-82
2023/05/19 07:37:31;;;;;;;2.00;0.73;;;;;;;17.62;100.00;101045.97;7393650;19;20014;-82
2023/05/19 07:39:57;;;;;;;2.72;0.47;;;;;;;17.65;100.00;101045.72;7391807;19;20092;-82
2023/05/19 07:42:23;;;;;;;0.28;0.25;;;;;;;17.64;100.00;101044.19;7393391;19;20015;-81
2023/05/19 07:44:49;;;;;;;1.75;0.70;;;;;;;17.60;100.00;101042.88;7390686;19;20019;-82
2023/05/19 07:47:15;;;;;;;3.63;0.40;;;;;;;17.56;100.00;101045.91;7391321;19;20026;-82
2023/05/19 07:49:41;;;;;;;0.45;0.13;;;;;;;17.48;100.00;101041.94;7393507;19;20019;-82
2023/05/19 07:52:08;;;;;;;0.25;0.20;;;;;;;17.49;100.00;101049.13;7392696;19;20078;-82
2023/05/19 07:54:34;;;;;;;2.13;0.82;;;;;;;17.47;100.00;101054.47;7393182;19;20409;-82
2023/05/19 07:57:00;;;;;;;1.25;0.50;;;;;;;17.50;100.00;101047.88;7391552;19;20021;-82
2023/05/19 07:59:26;;;;;;;0.17;0.17;;;;;;;17.53;100.00;101049.72;7394687;19;20014;-82
2023/05/19 08:01:52;;;;;;;1.27;0.63;;;;;;;17.48;100.00;101050.38;7395823;19;20021;-82
2023/05/19 08:04:18;;;;;;;0.28;0.20;;;;;;;17.44;100.00;101047.78;7393538;19;20485;-83
2023/05/19 08:06:44;;;;;;;1.05;0.40;;;;;;;17.53;100.00;101051.75;7394626;19;20010;-83
2023/05/19 08:09:10;;;;;;;3.38;0.90;;;;;;;17.81;100.00;101050.78;7394405;19;20013;-83
2023/05/19 08:11:37;;;;;;;1.58;0.28;;;;;;;17.94;100.00;101056.81;7392615;19;20553;-83
2023/05/19 08:14:03;;;;;;;3.92;1.08;;;;;;;17.95;100.00;101046.31;7391996;19;20022;-82
2023/05/19 08:16:29;;;;;;;8.38;0.73;;;;;;;17.88;100.00;101056.00;7390338;19;20033;-84
2023/05/19 08:18:55;;;;;;;1.65;1.15;;;;;;;18.02;100.00;101045.84;7389066;19;20457;-83
2023/05/19 08:21:21;;;;;;;2.35;1.05;;;;;;;17.57;100.00;101050.25;7390499;19;20033;-82
2023/05/19 08:23:48;;;;;;;2.88;1.08;;;;;;;17.24;100.00;101055.44;7390248;19;20028;-83
2023/05/19 08:26:14;;;;;;;0.47;0.40;;;;;;;17.02;100.00;101052.38;7389777;19;20029;-83
2023/05/19 08:28:40;;;;;;;0.55;0.20;;;;;;;17.07;100.00;101048.81;7391919;19;20461;-83
2023/05/19 08:31:06;;;;;;;2.58;1.13;;;;;;;16.96;100.00;101052.28;7389054;19;20341;-84
2023/05/19 08:33:32;;;;;;;9.02;0.85;;;;;;;17.05;100.00;101051.38;7389075;19;20011;-84
2023/05/19 08:35:59;;;;;;;0.28;0.28;;;;;;;17.01;100.00;101062.06;7394116;19;20047;-86
2023/05/19 08:38:25;;;;;;;0.60;0.55;;;;;;;16.90;100.00;101054.25;7392017;19;20449;-91
2023/05/19 08:40:52;;;;;;;0.57;0.20;;;;;;;16.86;100.00;101052.88;7393195;19;20358;-90
2023/05/19 08:43:18;;;;;;;6.32;0.77;;;;;;;16.87;100.00;101054.47;7392993;19;20043;-88
2023/05/19 08:45:47;;;;;;;0.77;0.45;;;;;;;16.70;100.00;101051.38;7393466;19;20041;-90
2023/05/19 08:48:17;;;;;;;1.38;0.45;;;;;;;16.52;100.00;101054.44;7392770;19;20029;-91
2023/05/19 08:50:55;;;;;;;0.85;0.73;;;;;;;16.38;100.00;101058.78;7390260;19;20021;-91
2023/05/19 08:53:30;;;;;;;1.27;0.63;;;;;;;16.34;100.00;101066.66;7390828;19;20014;-90
2023/05/19 08:56:09;;;;;;;1.33;0.95;;;;;;;16.27;100.00;101058.59;7394435;19;20017;-90
2023/05/19 08:58:40;;;;;;;5.72;0.65;;;;;;;16.12;100.00;101057.03;7394228;19;20028;-91
2023/05/19 09:01:06;;;;;;;2.35;1.23;;;;;;;16.02;100.00;101059.19;7389710;19;20018;-92
2023/05/19 09:03:37;;;;;;;2.95;1.13;;;;;;;16.03;100.00;101055.13;7392180;19;20021;-91
2023/05/19 09:06:05;;;;;;;;;;;;;;;16.07;100.00;101054.94;7395296;19;20010;-94
2023/05/19 09:08:31;;;;;;;4.15;0.73;;;;;;;16.00;100.00;101055.31;7392744;19;20345;-93
2023/05/19 09:10:57;;;;;;;0.50;0.40;;;;;;;15.85;100.00;101055.31;7391232;19;20026;-94
2023/05/19 09:13:23;;;;;;;0.65;0.38;;;;;;;15.77;100.00;101056.94;7391915;19;20541;-94
2023/05/19 09:15:51;;;;;;;1.38;0.80;;;;;;;15.70;100.00;101055.28;7395087;19;20014;-93
2023/05/19 09:18:18;;;;;;;1.15;1.05;;;;;;;15.62;100.00;101053.31;7412045;19;20006;-94
2023/05/19 09:20:47;;;;;;;1.30;0.75;;;;;;;15.60;100.00;101050.22;7405743;19;20015;-95
2023/05/19 09:23:15;;;;;;;1.65;0.52;;;;;;;15.62;100.00;101053.31;7407180;19;20367;-96
2023/05/19 09:25:52;;;;;;;0.60;0.47;;;;;;;15.58;100.00;101050.72;7416661;19;20521;-94
2023/05/19 09:28:29;;;;;;;1.80;0.77;;;;;;;15.64;100.00;101051.59;7424250;19;20015;-95
2023/05/19 09:31:10;;;;;;;2.75;0.80;;;;;;;15.63;100.00;101052.06;7418209;19;20019;-95
2023/05/19 09:33:39;;;;;;;1.85;0.65;;;;;;;15.64;100.00;101059.22;7415601;19;20039;-95
2023/05/19 09:36:07;;;;;;;2.70;0.60;;;;;;;15.70;100.00;101046.09;7415919;19;20036;-95
2023/05/19 09:38:37;;;;;;;0.85;0.70;;;;;;;15.81;100.00;101054.69;7419923;19;20019;-93
2023/05/19 09:41:05;;;;;;;0.68;0.45;;;;;;;15.81;100.00;101049.88;7415369;19;20007;-96
2023/05/19 09:43:33;;;;;;;0.93;0.60;;;;;;;16.02;100.00;101047.97;7420179;19;20006;-95
2023/05/19 09:46:02;;;;;;;1.33;0.50;;;;;;;24.53;100.00;101039.63;7412496;19;20022;-95
2023/05/19 09:48:31;;;;;;;2.17;0.40;;;;;;;31.84;70.17;101030.84;7410652;19;20243;-94
2023/05/19 09:50:59;;;;;;;3.40;0.85;;;;;;;33.32;58.98;101025.88;7406187;19;20017;-95
2023/05/19 09:53:25;;;;;;;1.55;0.30;;;;;;;33.88;53.89;101024.31;7406447;19;20013;-95
2023/05/19 09:55:57;;;;;;;0.38;0.32;;;;;;;34.13;51.12;101033.38;7412360;19;20058;-95
2023/05/19 09:58:25;;;;;;;1.73;0.38;;;;;;;34.21;49.43;101039.75;7408050;19;20018;-94
2023/05/19 10:00:53;;;;;;;1.67;0.68;;;;;;;34.41;47.53;101033.88;7400952;19;20021;-94
2023/05/19 10:03:26;;;;;;;0.77;0.38;;;;;;;34.55;46.58;101026.97;7399041;19;20096;-95
2023/05/19 10:05:53;;;;;;;1.65;0.85;;;;;;;34.61;45.75;101036.06;7414403;19;20031;-95
2023/05/19 10:08:20;;;;;;;0.73;0.50;;;;;;;34.57;44.49;101023.44;7412789;19;20011;-95
2023/05/19 10:10:47;;;;;;;0.32;0.32;;;;;;;34.46;44.51;101035.69;7408809;19;20011;-95
2023/05/19 10:13:15;;;;;;;0.60;0.38;;;;;;;34.54;43.60;101036.28;7413443;19;20058;-94
2023/05/19 10:15:42;;;;;;;3.40;0.38;;;;;;;34.84;42.63;101029.69;7405986;19;20101;-93
2023/05/19 10:18:09;;;;;;;0.98;0.40;;;;;;;35.00;42.68;101036.59;7398210;19;20023;-93
2023/05/19 10:20:36;;;;;;;1.35;0.68;;;;;;;35.44;42.14;101033.03;7396926;19;20024;-94
2023/05/19 10:23:02;;;;;;;1.45;0.47;;;;;;;35.46;41.54;101022.34;7398319;19;20043;-93
2023/05/19 10:25:33;;;;;;;1.75;0.40;;;;;;;35.58;40.96;101026.09;7404177;19;20018;-93
2023/05/19 10:28:06;;;;;;;1.33;0.30;;;;;;;35.44;41.53;101033.03;7401003;19;20022;-90
2023/05/19 10:30:40;;;;;;;0.52;0.47;;;;;;;35.47;41.37;101020.22;7394794;19;20021;-93
2023/05/19 10:33:09;;;;;;;1.58;0.52;;;;;;;35.93;40.86;101019.63;7395777;19;20029;-93
2023/05/19 10:35:48;;;;;;;1.55;0.13;;;;;;;35.85;40.25;101022.75;7406801;19;20042;-92
2023/05/19 10:38:38;;;;;;;2.40;0.80;;;;;;;35.83;40.08;101021.84;7401806;19;20017;-92
2023/05/19 10:41:07;;;;;;;;;;;;;;;35.92;39.21;101023.88;7399954;19;20006;-93
2023/05/19 10:43:52;;;;;;;0.30;0.22;;;;;;;35.67;39.45;101021.59;7396062;19;19914;-89
2023/05/19 10:46:24;;;;;;;1.10;0.10;;;;;;;35.79;39.94;101017.31;7399147;19;20018;-91
2023/05/19 10:48:50;;;;;;;3.63;0.90;;;;;;;35.74;39.26;101020.56;7394276;19;20413;-89
2023/05/19 10:51:16;;;;;;;2.30;0.50;;;;;;;35.86;38.74;101026.41;7394702;19;20011;-88
2023/05/19 10:53:45;;;;;;;0.95;0.45;;;;;;;36.01;38.51;101025.97;7395855;19;20399;-89
2023/05/19 10:56:28;;;;;;;1.33;0.40;;;;;;;35.92;38.31;101029.69;7398052;19;20018;-89
2023/05/19 10:58:55;;;;;;;4.40;0.57;;;;;;;36.20;37.74;101031.53;7395797;19;20354;-88
2023/05/19 11:01:23;;;;;;;0.80;0.20;;;;;;;36.37;37.77;101025.34;7391874;19;20044;-88
2023/05/19 11:03:55;;;;;;;6.45;0.68;;;;;;;35.95;37.94;101026.34;7393379;19;20473;-88
2023/05/19 11:06:33;;;;;;;0.70;0.35;;;;;;;36.19;37.17;101030.75;7394672;19;20021;-88
2023/05/19 11:09:09;;;;;;;7.97;1.13;;;;;;;36.34;36.54;101035.34;7398040;19;20020;-88
2023/05/19 11:11:52;;;;;;;1.00;0.22;;;;;;;36.18;36.57;101034.28;7393554;19;20007;-93
2023/05/19 11:14:26;;;;;;;1.20;0.65;;;;;;;36.03;36.89;101029.75;7393940;19;20012;-90
2023/05/19 11:16:55;;;;;;;1.80;0.60;;;;;;;36.01;37.19;101031.75;7397584;19;20025;-90
2023/05/19 11:19:30;;;;;;;1.35;0.85;;;;;;;36.13;37.01;101032.53;7394953;19;20019;-91
2023/05/19 11:22:06;;;;;;;1.45;0.68;;;;;;;36.39;36.52;101034.16;7398251;19;20473;-90
2023/05/19 11:24:32;;;;;;;1.90;0.50;;;;;;;36.47;36.42;101026.75;7392042;19;20015;-91
2023/05/19 11:26:58;;;;;;;1.30;0.40;;;;;;;36.38;36.10;101032.69;7395253;19;20488;-90
2023/05/19 11:29:25;;;;;;;4.95;1.05;;;;;;;36.34;36.13;101041.13;7394181;19;20047;-90
2023/05/19 11:31:51;;;;;;;1.05;0.38;;;;;;;36.37;35.43;101040.63;7394651;19;20022;-89